createdAt,value
2019-03-24T00:04:51.459Z,34.00
2019-03-24T00:10:00.347Z,34.00
2019-03-24T00:15:08.707Z,33.63
2019-03-24T00:20:18.577Z,34.00
2019-03-24T00:25:22.957Z,33.00
2019-03-24T00:30:31.789Z,32.00
2019-03-24T00:35:36.152Z,35.00
2019-03-24T00:40:44.972Z,35.00
2019-03-24T00:45:52.922Z,41.60
2019-03-24T00:51:01.820Z,39.38
2019-03-24T00:56:06.314Z,35.00
2019-03-24T01:01:15.713Z,34.00
2019-03-24T01:06:22.746Z,33.33
2019-03-24T01:11:27.229Z,39.00
2019-03-24T01:16:35.129Z,42.11
2019-03-24T01:21:43.336Z,44.78
2019-03-24T01:26:52.363Z,41.20
2019-03-24T01:31:57.232Z,41.25
2019-03-24T01:37:04.763Z,36.89
2019-03-24T01:42:11.015Z,44.75
2019-03-24T01:47:18.600Z,38.22
2019-03-24T01:52:28.511Z,46.13
2019-03-24T01:57:31.568Z,42.00
2019-03-24T02:02:34.867Z,48.00
2019-03-24T02:07:45.601Z,45.11
2019-03-24T02:12:55.306Z,45.56
2019-03-24T02:18:03.469Z,50.22
2019-03-24T02:23:14.102Z,51.30
2019-03-24T02:28:21.385Z,51.22
2019-03-24T02:33:32.030Z,52.11
2019-03-24T02:38:41.767Z,49.13
2019-03-24T02:43:53.056Z,52.40
2019-03-24T02:49:02.904Z,54.56
2019-03-24T02:54:06.640Z,53.00
2019-03-24T02:59:12.195Z,52.57
2019-03-24T03:04:20.735Z,56.80
2019-03-24T03:09:25.996Z,53.71
2019-03-24T03:14:36.329Z,57.00
2019-03-24T03:19:40.049Z,57.00
2019-03-24T03:24:52.243Z,61.55
2019-03-24T03:29:55.462Z,59.00
2019-03-24T03:35:08.126Z,63.00
2019-03-24T03:40:14.506Z,61.00
2019-03-24T03:45:26.162Z,61.00
2019-03-24T03:50:38.719Z,54.50
2019-03-24T03:55:44.303Z,53.00
2019-03-24T04:00:47.969Z,53.00
2019-03-24T04:05:59.324Z,51.36
2019-03-24T04:11:04.761Z,46.00
2019-03-24T04:16:08.661Z,45.00
2019-03-24T04:21:19.262Z,41.56
2019-03-24T04:26:28.623Z,43.00
2019-03-24T04:31:37.316Z,39.33
2019-03-24T04:36:46.037Z,40.25
2019-03-24T04:41:55.729Z,39.00
2019-03-24T04:47:05.517Z,41.11
2019-03-24T04:52:13.479Z,37.33
2019-03-24T04:57:18.942Z,40.00
2019-03-24T05:02:27.082Z,39.78
2019-03-24T05:07:34.546Z,34.67
2019-03-24T05:12:38.895Z,35.00
2019-03-24T05:17:46.930Z,33.89
2019-03-24T05:22:53.984Z,26.00
2019-03-24T05:28:01.743Z,23.38
2019-03-24T05:33:06.977Z,26.00
2019-03-24T05:38:12.844Z,22.87
2019-03-24T05:43:17.875Z,30.25
2019-03-24T05:48:24.027Z,22.75
2019-03-24T05:53:28.446Z,24.00
2019-03-24T05:58:34.599Z,29.87
2019-03-24T06:03:38.127Z,26.25
2019-03-24T06:08:44.273Z,19.50
2019-03-24T06:13:51.943Z,20.62
2019-03-24T06:18:56.794Z,22.25
2019-03-24T06:24:00.282Z,28.33
2019-03-24T06:29:07.756Z,22.00
2019-03-24T06:34:15.146Z,22.00
2019-03-24T06:39:20.004Z,22.50
2019-03-24T06:44:24.158Z,21.00
2019-03-24T06:49:32.451Z,23.50
2019-03-24T06:54:36.619Z,22.00
2019-03-24T06:59:43.104Z,20.22
2019-03-24T07:04:47.811Z,20.50
2019-03-24T07:09:51.608Z,21.00
2019-03-24T07:14:59.915Z,20.00
2019-03-24T07:20:04.942Z,19.29
2019-03-24T07:25:12.315Z,21.00
2019-03-24T07:30:20.416Z,21.62
2019-03-24T07:35:25.173Z,22.75
2019-03-24T07:40:33.479Z,20.00
2019-03-24T07:45:41.342Z,20.00
2019-03-24T07:50:50.637Z,19.62
2019-03-24T07:55:55.803Z,22.00
2019-03-24T08:00:59.110Z,18.00
2019-03-24T08:06:03.389Z,24.00
2019-03-24T08:11:10.725Z,20.12
2019-03-24T08:16:14.723Z,21.75
2019-03-24T08:21:23.155Z,22.25
2019-03-24T08:26:27.971Z,22.00
2019-03-24T08:31:36.202Z,22.25
2019-03-24T08:36:42.042Z,23.00
2019-03-24T08:41:46.375Z,19.50
2019-03-24T08:46:53.123Z,22.11
2019-03-24T08:51:59.934Z,20.00
2019-03-24T08:57:04.940Z,22.00
2019-03-24T09:02:12.580Z,23.86
2019-03-24T09:07:19.906Z,20.37
2019-03-24T09:12:28.272Z,22.00
2019-03-24T09:17:35.821Z,20.00
2019-03-24T09:22:40.658Z,20.00
2019-03-24T09:27:44.185Z,17.67
2019-03-24T09:32:50.259Z,14.14
2019-03-24T09:37:54.671Z,20.67
2019-03-24T09:43:03.905Z,15.50
2019-03-24T09:48:08.444Z,18.75
2019-03-24T09:53:13.182Z,20.75
2019-03-24T09:58:17.717Z,23.00
2019-03-24T10:03:22.226Z,21.75
2019-03-24T10:08:30.806Z,17.75
2019-03-24T10:13:38.581Z,19.50
2019-03-24T10:18:48.014Z,21.50
2019-03-24T10:23:52.898Z,20.00
2019-03-24T10:28:59.687Z,23.00
2019-03-24T10:34:03.946Z,21.00
2019-03-24T10:39:07.464Z,22.00
2019-03-24T10:44:11.037Z,22.00
2019-03-24T10:49:24.844Z,21.50
2019-03-24T10:54:28.386Z,20.75
2019-03-24T10:59:34.426Z,20.00
2019-03-24T11:04:42.815Z,22.00
2019-03-24T11:09:48.869Z,20.00
2019-03-24T11:14:59.067Z,20.00
2019-03-24T11:20:08.415Z,20.00
2019-03-24T11:25:13.593Z,20.00
2019-03-24T11:30:19.483Z,24.12
2019-03-24T11:35:28.796Z,20.00
2019-03-24T11:40:37.462Z,20.00
2019-03-24T11:45:41.909Z,19.00
2019-03-24T11:50:45.514Z,20.00
2019-03-24T11:55:49.782Z,20.00
2019-03-24T12:00:55.086Z,21.25
2019-03-24T12:06:14.023Z,18.62
2019-03-24T12:11:13.514Z,18.00
2019-03-24T12:16:19.817Z,19.62
2019-03-24T12:21:26.699Z,18.75
2019-03-24T12:26:30.247Z,18.50
2019-03-24T12:31:34.932Z,19.75
2019-03-24T12:36:43.706Z,19.75
2019-03-24T12:41:49.099Z,20.00
2019-03-24T12:46:57.946Z,18.00
2019-03-24T12:52:04.260Z,19.87
2019-03-24T12:57:07.875Z,19.25
2019-03-24T13:02:12.259Z,18.25
2019-03-24T13:07:15.967Z,19.00
2019-03-24T13:12:22.118Z,17.62
2019-03-24T13:17:25.817Z,19.00
2019-03-24T13:22:30.251Z,18.75
2019-03-24T13:27:33.828Z,16.33
2019-03-24T13:32:42.351Z,20.00
2019-03-24T13:37:48.383Z,21.12
2019-03-24T13:42:52.724Z,17.33
2019-03-24T13:47:55.993Z,18.00
2019-03-24T13:52:59.958Z,17.25
2019-03-24T13:58:04.035Z,17.00
2019-03-24T14:03:09.947Z,18.00
2019-03-24T14:08:16.690Z,16.62
2019-03-24T14:13:21.759Z,17.00
2019-03-24T14:18:32.719Z,18.33
2019-03-24T14:23:36.835Z,16.67
2019-03-24T14:28:41.003Z,16.00
2019-03-24T14:33:50.134Z,20.25
2019-03-24T14:38:54.287Z,18.33
2019-03-24T14:43:57.748Z,17.67
2019-03-24T14:49:06.279Z,21.37
2019-03-24T14:54:13.745Z,19.00
2019-03-24T14:59:18.604Z,19.00
2019-03-24T15:04:21.959Z,17.67
2019-03-24T15:09:27.838Z,16.00
2019-03-24T15:14:33.455Z,22.13
2019-03-24T15:19:39.749Z,22.87
2019-03-24T15:24:46.930Z,17.75
2019-03-24T15:29:53.255Z,22.86
2019-03-24T15:34:57.108Z,22.25
2019-03-24T15:40:01.934Z,27.20
2019-03-24T15:45:13.170Z,27.00
2019-03-24T15:50:16.567Z,30.33
2019-03-24T15:55:20.814Z,22.40
2019-03-24T16:00:41.944Z,25.25
2019-03-24T16:05:51.498Z,28.33
2019-03-24T16:10:58.255Z,16.00
2019-03-24T16:16:06.590Z,29.09
2019-03-24T16:21:12.083Z,25.20
2019-03-24T16:26:20.078Z,19.00
2019-03-24T16:31:24.489Z,22.00
2019-03-24T16:36:28.080Z,17.00
2019-03-24T16:41:34.308Z,23.62
2019-03-24T16:46:41.126Z,18.75
2019-03-24T16:51:44.488Z,19.33
2019-03-24T16:56:50.405Z,20.00
2019-03-24T17:01:57.449Z,19.00
2019-03-24T17:07:03.995Z,20.12
2019-03-24T17:12:08.890Z,19.00
2019-03-24T17:17:14.522Z,17.86
2019-03-24T17:22:22.655Z,22.25
2019-03-24T17:27:31.271Z,21.00
2019-03-24T17:32:38.990Z,26.62
2019-03-24T17:37:45.904Z,19.50
2019-03-24T17:42:49.373Z,34.00
2019-03-24T17:47:53.363Z,23.20
2019-03-24T17:52:57.395Z,24.00
2019-03-24T17:58:02.607Z,21.75
2019-03-24T18:03:14.622Z,24.09
2019-03-24T18:08:18.631Z,34.00
2019-03-24T18:13:23.995Z,30.43
2019-03-24T18:18:31.767Z,29.00
2019-03-24T18:23:41.355Z,32.20
2019-03-24T18:28:49.214Z,30.00
2019-03-24T18:33:57.839Z,28.00
2019-03-24T18:39:07.322Z,32.40
2019-03-24T18:44:12.195Z,29.00
2019-03-24T18:49:19.212Z,24.50
2019-03-24T18:54:28.496Z,26.45
2019-03-24T18:59:35.447Z,30.25
2019-03-24T19:04:39.707Z,26.00
2019-03-24T19:09:51.351Z,34.78
2019-03-24T19:14:57.360Z,25.88
2019-03-24T19:20:05.404Z,31.62
2019-03-24T19:25:11.220Z,30.00
2019-03-24T19:30:19.646Z,29.25
2019-03-24T19:35:23.710Z,28.00
2019-03-24T19:40:32.992Z,28.00
2019-03-24T19:45:40.135Z,31.37
2019-03-24T19:50:44.200Z,33.00
2019-03-24T19:55:52.662Z,32.88
2019-03-24T20:01:01.094Z,33.38
2019-03-24T20:06:07.244Z,31.12
2019-03-24T20:11:12.484Z,39.86
2019-03-24T20:16:17.594Z,33.00
2019-03-24T20:21:32.229Z,36.43
2019-03-24T20:26:38.085Z,38.14
2019-03-24T20:31:48.357Z,39.00
2019-03-24T20:36:54.022Z,40.43
2019-03-24T20:41:58.691Z,36.50
2019-03-24T20:47:08.477Z,34.36
2019-03-24T20:52:19.444Z,43.31
2019-03-24T20:57:25.351Z,33.43
2019-03-24T21:02:32.116Z,33.88
2019-03-24T21:07:40.412Z,32.86
2019-03-24T21:12:45.299Z,30.00
2019-03-24T21:17:49.149Z,33.00
2019-03-24T21:22:57.935Z,33.13
2019-03-24T21:28:04.411Z,33.00
2019-03-24T21:33:08.394Z,32.00
2019-03-24T21:38:14.704Z,32.00
2019-03-24T21:45:28.575Z,28.20
2019-03-24T22:09:49.264Z,10.00
2019-03-24T22:14:55.140Z,10.57
2019-03-24T22:20:00.350Z,8.00
2019-03-24T22:25:07.031Z,10.00
2019-03-24T22:30:13.962Z,9.57
2019-03-24T22:35:17.785Z,8.00
2019-03-24T22:40:23.430Z,8.83
2019-03-24T22:45:29.829Z,8.00
2019-03-24T22:50:34.656Z,8.57
2019-03-24T22:55:41.248Z,9.00
2019-03-24T23:00:45.324Z,8.00
2019-03-24T23:05:52.796Z,9.00
2019-03-24T23:10:57.572Z,8.00
2019-03-24T23:16:04.079Z,11.00
2019-03-24T23:21:12.407Z,8.00
2019-03-24T23:26:19.037Z,10.00
2019-03-24T23:31:24.835Z,9.86
2019-03-24T23:36:31.413Z,9.57
2019-03-24T23:41:37.973Z,9.00
2019-03-24T23:46:42.755Z,9.00
2019-03-24T23:51:50.941Z,15.00
2019-03-24T23:56:57.398Z,10.63
